New Waterford, Ohio
Current Conditions -  °F | °C
As of 7:47 PM on Tuesday 21 Oct 2014 (Local Time) from KBVI Reporting Station
Overcast Overcast  
Wind Chill: 42°   Ceiling: 700
Heat Index: 46°   Visibility: 10mi
Dew Point: 45°   Wind: 8mph
Humidity: 93%   Direction: 310°NW
Pressure: 29.99"   Gusts: NA
Location:  40.85°N, 80.61°W
Report Text: KBVI 212347Z 31007KT 10SM OVC007 08/07 A2999
Loading
Personal Weather Stations






























Interactive Weather Map
Tropical Storm Tracking
New forecast layout! Learn more

10-Day Weather Forecast

Advertisements
Track Severe Weather on mobile